Time;durP1;ratioP1;P1;durP2;ratioP2;P2;SDS_P1;SDS_P2;PMS_P1;PMS_P2;Temp;Humidity;BMP_temperature;BMP_pressure;BME280_temperature;BME280_humidity;BME280_pressure;Samples;Min_cycle;Max_cycle;Signal;HPM_P1;HPM_P2
2022/05/17 00:02:12;;;;;;;;;;;;;;;22.74;100.00;98160.13;5015228;28;19931;-61
2022/05/17 00:04:39;;;;;;;;;;;;;;;22.71;100.00;98162.72;5016825;28;20390;-61
2022/05/17 00:07:05;;;;;;;;;;;;;;;22.72;100.00;98158.84;5018866;28;19930;-62
2022/05/17 00:09:32;;;;;;;;;;;;;;;22.73;100.00;98165.91;5017919;28;20042;-61
2022/05/17 00:11:59;;;;;;;;;;;;;;;22.71;100.00;98165.44;5015361;28;20017;-61
2022/05/17 00:14:26;;;;;;;;;;;;;;;22.70;100.00;98161.13;5015132;28;19936;-62
2022/05/17 00:16:52;;;;;;;;;;;;;;;22.66;100.00;98163.72;5020418;28;20504;-61
2022/05/17 00:19:20;;;;;;;;;;;;;;;22.60;100.00;98159.56;5022253;28;19926;-62
2022/05/17 00:21:46;;;;;;;;;;;;;;;22.57;100.00;98160.25;5019749;28;19926;-61
2022/05/17 00:24:13;;;;;;;;;;;;;;;22.72;100.00;98159.66;5018499;28;19933;-62
2022/05/17 00:26:40;;;;;;;;;;;;;;;22.65;100.00;98155.88;5020274;28;19948;-60
2022/05/17 00:29:07;;;;;;;;;;;;;;;22.62;100.00;98170.16;5021899;28;19932;-61
2022/05/17 00:31:34;;;;;;;;;;;;;;;22.69;100.00;98162.25;5021061;28;19929;-60
2022/05/17 00:34:02;;;;;;;;;;;;;;;22.67;100.00;98165.31;5018629;28;19929;-62
2022/05/17 00:36:29;;;;;;;;;;;;;;;22.61;100.00;98166.63;5018434;28;19936;-61
2022/05/17 00:38:55;;;;;;;;;;;;;;;22.55;100.00;98162.53;5021936;28;19989;-61
2022/05/17 00:41:21;;;;;;;;;;;;;;;22.62;100.00;98168.22;5021944;28;20042;-61
2022/05/17 00:46:40;;;;;;;;;;;;;;;22.46;100.00;98159.88;5018640;28;19955;-62
2022/05/17 00:49:09;;;;;;;;;;;;;;;22.31;100.00;98159.69;5021201;28;19952;-60
2022/05/17 00:51:36;;;;;;;;;;;;;;;22.16;100.00;98161.06;5019994;28;19926;-61
2022/05/17 00:54:05;;;;;;;;;;;;;;;22.11;100.00;98166.72;5017971;28;19930;-61
2022/05/17 00:56:32;;;;;;;;;;;;;;;22.08;100.00;98159.22;5018407;28;19964;-60
2022/05/17 00:58:59;;;;;;;;;;;;;;;22.20;100.00;98153.84;5021290;28;19965;-61
2022/05/17 01:01:30;;;;;;;;;;;;;;;22.18;100.00;98158.84;5021136;28;19959;-62
2022/05/17 01:04:00;;;;;;;;;;;;;;;22.16;100.00;98152.91;5010039;28;19933;-61
2022/05/17 01:06:29;;;;;;;;;;;;;;;22.20;100.00;98156.56;5017896;28;19997;-62
2022/05/17 01:08:55;;;;;;;;;;;;;;;22.18;100.00;98158.84;5010327;28;19964;-61
2022/05/17 01:11:21;;;;;;;;;;;;;;;22.26;100.00;98166.13;5017953;28;19993;-61
2022/05/17 01:16:32;;;;;;;;;;;;;;;22.16;100.00;98171.19;5018270;28;19930;-60
2022/05/17 01:19:01;;;;;;;;;;;;;;;21.95;100.00;98173.88;5021266;28;19932;-61
2022/05/17 01:21:28;;;;;;;;;;;;;;;21.84;100.00;98167.22;5020981;28;19921;-61
2022/05/17 01:23:55;;;;;;;;;;;;;;;21.99;100.00;98169.38;5009801;28;19933;-61
2022/05/17 01:26:22;;;;;;;;;;;;;;;21.87;100.00;98164.63;5017491;28;19926;-61
2022/05/17 01:28:48;;;;;;;;;;;;;;;22.01;100.00;98172.56;5019111;28;19929;-61
2022/05/17 01:31:15;;;;;;;;;;;;;;;21.82;100.00;98164.00;5020705;28;19926;-60
2022/05/17 01:33:41;;;;;;;;;;;;;;;21.83;100.00;98173.78;5018892;28;19993;-61
2022/05/17 01:36:11;;;;;;;;;;;;;;;21.84;100.00;98167.22;5017349;28;20050;-61
2022/05/17 01:38:39;;;;;;;;;;;;;;;21.89;100.00;98161.59;5001275;28;19932;-61
2022/05/17 01:41:05;;;;;;;;;;;;;;;21.91;100.00;98165.59;5020720;28;20048;-60
2022/05/17 01:43:32;;;;;;;;;;;;;;;22.00;100.00;98162.81;5019798;28;19930;-60
2022/05/17 01:46:04;;;;;;;;;;;;;;;22.06;100.00;98166.94;5017396;28;19952;-61
2022/05/17 01:48:30;;;;;;;;;;;;;;;21.88;100.00;98162.72;5017696;28;20451;-61
2022/05/17 01:50:56;;;;;;;;;;;;;;;21.99;100.00;98161.22;5020726;28;20016;-60
2022/05/17 01:53:22;;;;;;;;;;;;;;;21.99;100.00;98163.94;5020711;28;19992;-61
2022/05/17 01:55:50;;;;;;;;;;;;;;;22.01;100.00;98167.91;5017803;28;19926;-60
2022/05/17 01:58:16;;;;;;;;;;;;;;;22.07;100.00;98173.94;5017382;28;20479;-61
2022/05/17 02:00:45;;;;;;;;;;;;;;;22.04;100.00;98163.72;5019431;28;19925;-61
2022/05/17 02:03:11;;;;;;;;;;;;;;;22.04;100.00;98166.44;5020745;28;19925;-61
2022/05/17 02:05:37;;;;;;;;;;;;;;;22.05;100.00;98157.97;5019003;28;19985;-61
2022/05/17 02:08:04;;;;;;;;;;;;;;;22.13;100.00;98159.03;5017310;28;19998;-61
2022/05/17 02:10:33;;;;;;;;;;;;;;;22.13;100.00;98161.75;5017249;28;19965;-62
2022/05/17 02:13:00;;;;;;;;;;;;;;;22.17;100.00;98159.97;5020283;28;19932;-60
2022/05/17 02:15:27;;;;;;;;;;;;;;;22.23;100.00;98160.56;5020178;28;19929;-61
2022/05/17 02:17:54;;;;;;;;;;;;;;;22.19;100.00;98154.97;5009073;28;19926;-61
2022/05/17 02:20:21;;;;;;;;;;;;;;;22.19;100.00;98163.13;5016938;28;19926;-60
2022/05/17 02:22:47;;;;;;;;;;;;;;;22.14;100.00;98163.34;5019432;28;19930;-61
2022/05/17 02:25:14;;;;;;;;;;;;;;;22.20;100.00;98174.81;5020038;28;19932;-61
2022/05/17 02:27:40;;;;;;;;;;;;;;;22.21;100.00;98174.50;5018219;28;19977;-61
2022/05/17 02:30:09;;;;;;;;;;;;;;;22.26;100.00;98165.31;5016945;28;19990;-60
2022/05/17 02:32:35;;;;;;;;;;;;;;;22.18;100.00;98164.28;5017652;28;19993;-61
2022/05/17 02:35:02;;;;;;;;;;;;;;;22.14;100.00;98166.06;5020139;28;19984;-60
2022/05/17 02:37:28;;;;;;;;;;;;;;;22.05;100.00;98171.56;5020043;28;19949;-61
2022/05/17 02:39:54;;;;;;;;;;;;;;;22.07;100.00;98179.38;5016559;28;19985;-59
2022/05/17 02:42:20;;;;;;;;;;;;;;;22.16;100.00;98177.41;5016737;28;20024;-61
2022/05/17 02:44:47;;;;;;;;;;;;;;;22.15;100.00;98172.31;5019115;28;20288;-61
2022/05/17 02:47:15;;;;;;;;;;;;;;;22.18;100.00;98179.81;5020112;28;19926;-61
2022/05/17 02:49:44;;;;;;;;;;;;;;;22.20;100.00;98177.53;5018080;28;20001;-60
2022/05/17 02:52:11;;;;;;;;;;;;;;;22.24;100.00;98182.00;5016577;28;19997;-60
2022/05/17 02:54:39;;;;;;;;;;;;;;;22.22;100.00;98181.50;5017563;28;19932;-61
2022/05/17 02:57:06;;;;;;;;;;;;;;;22.21;100.00;98182.66;5019902;28;19940;-61
2022/05/17 02:59:32;;;;;;;;;;;;;;;22.08;100.00;98181.00;5019040;28;19926;-60
2022/05/17 03:01:59;;;;;;;;;;;;;;;22.16;100.00;98177.41;5016392;28;19944;-61
2022/05/17 03:04:27;;;;;;;;;;;;;;;22.14;100.00;98176.94;5016131;28;19933;-60
2022/05/17 03:06:53;;;;;;;;;;;;;;;22.15;100.00;98181.28;5008235;28;19930;-61
2022/05/17 03:09:20;;;;;;;;;;;;;;;22.15;100.00;98181.28;5016097;28;20021;-60
2022/05/17 03:11:46;;;;;;;;;;;;;;;22.06;100.00;98177.81;5018693;28;19925;-60
2022/05/17 03:14:14;;;;;;;;;;;;;;;22.13;100.00;98182.72;5016226;28;19949;-61
2022/05/17 03:16:41;;;;;;;;;;;;;;;21.97;100.00;98188.72;5017677;28;19996;-60
2022/05/17 03:19:07;;;;;;;;;;;;;;;21.98;100.00;98194.97;5019572;28;19981;-61
2022/05/17 03:21:35;;;;;;;;;;;;;;;22.00;100.00;98192.75;5018893;28;20413;-60
2022/05/17 03:24:01;;;;;;;;;;;;;;;21.98;100.00;98178.66;5016360;28;19997;-61
2022/05/17 03:26:28;;;;;;;;;;;;;;;22.04;100.00;98196.38;5016311;28;20060;-60
2022/05/17 03:28:56;;;;;;;;;;;;;;;22.08;100.00;98191.88;5008355;28;19967;-61
2022/05/17 03:31:23;;;;;;;;;;;;;;;21.92;100.00;98191.66;5016345;28;20468;-60
2022/05/17 03:33:49;;;;;;;;;;;;;;;21.93;100.00;98200.63;5018918;28;20024;-60
2022/05/17 03:36:15;;;;;;;;;;;;;;;21.84;100.00;98197.94;5019120;28;20067;-60
2022/05/17 03:38:43;;;;;;;;;;;;;;;21.95;100.00;98198.34;5017138;28;20417;-61
2022/05/17 03:41:09;;;;;;;;;;;;;;;21.99;100.00;98210.19;5015866;28;19925;-61
2022/05/17 03:43:36;;;;;;;;;;;;;;;22.07;100.00;98193.00;5018134;28;19963;-60
2022/05/17 03:46:03;;;;;;;;;;;;;;;21.97;100.00;98199.63;5015826;28;19922;-60
2022/05/17 03:48:29;;;;;;;;;;;;;;;21.96;100.00;98189.06;5015910;28;19985;-61
2022/05/17 03:50:56;;;;;;;;;;;;;;;21.98;100.00;98186.81;5019092;28;20013;-60
2022/05/17 03:53:22;;;;;;;;;;;;;;;21.88;100.00;98187.19;5022605;28;19947;-62
2022/05/17 03:55:50;;;;;;;;;;;;;;;21.95;100.00;98199.16;5019573;28;19959;-62
2022/05/17 03:58:16;;;;;;;;;;;;;;;22.01;100.00;98199.75;5019333;28;19932;-62
2022/05/17 04:00:43;;;;;;;;;;;;;;;22.00;100.00;98198.94;5020872;28;19926;-61
2022/05/17 04:03:09;;;;;;;;;;;;;;;21.95;100.00;98193.72;5022439;28;19925;-61
2022/05/17 04:05:36;;;;;;;;;;;;;;;21.93;100.00;98192.47;5021306;28;19922;-61
2022/05/17 04:08:02;;;;;;;;;;;;;;;21.83;100.00;98199.03;5019159;28;19922;-60
2022/05/17 04:10:28;;;;;;;;;;;;;;;21.84;100.00;98205.28;5018899;28;20536;-61
2022/05/17 04:12:56;;;;;;;;;;;;;;;21.76;100.00;98214.25;5022239;28;19926;-62
2022/05/17 04:15:23;;;;;;;;;;;;;;;21.82;100.00;98218.38;5022214;28;19943;-61
2022/05/17 04:17:54;;;;;;;;;;;;;;;21.86;100.00;98222.06;5019237;28;19932;-61
2022/05/17 04:20:21;;;;;;;;;;;;;;;21.81;100.00;98224.97;5018841;28;19926;-62
2022/05/17 04:22:48;;;;;;;;;;;;;;;21.83;100.00;98222.72;5021383;28;19992;-62
2022/05/17 04:25:15;;;;;;;;;;;;;;;21.91;100.00;98230.06;5022094;28;19933;-61
2022/05/17 04:27:46;;;;;;;;;;;;;;;21.78;100.00;98234.59;5020468;28;19957;-61
2022/05/17 04:30:14;;;;;;;;;;;;;;;21.86;100.00;98238.38;5018641;28;19926;-62
2022/05/17 04:32:40;;;;;;;;;;;;;;;21.68;100.00;98239.59;5020158;28;19983;-61
2022/05/17 04:35:07;;;;;;;;;;;;;;;21.74;100.00;98246.44;5021870;28;19971;-62
2022/05/17 04:37:33;;;;;;;;;;;;;;;21.63;100.00;98256.09;5021369;28;19981;-61
2022/05/17 04:40:00;;;;;;;;;;;;;;;21.70;100.00;98240.84;5018536;28;19932;-61
2022/05/17 04:42:27;;;;;;;;;;;;;;;21.70;100.00;98248.19;5018378;28;19930;-60
2022/05/17 04:44:53;;;;;;;;;;;;;;;21.37;100.00;98248.81;5010795;28;19925;-61
2022/05/17 04:47:21;;;;;;;;;;;;;;;21.44;100.00;98249.13;5018439;28;19925;-62
2022/05/17 04:49:48;;;;;;;;;;;;;;;21.49;100.00;98254.38;5020612;28;19933;-60
2022/05/17 04:52:14;;;;;;;;;;;;;;;21.58;100.00;98254.34;5021773;28;19925;-61
2022/05/17 04:54:42;;;;;;;;;;;;;;;21.66;100.00;98255.44;5020152;28;19993;-61
2022/05/17 04:57:09;;;;;;;;;;;;;;;21.66;100.00;98263.59;5018615;28;19933;-61
2022/05/17 04:59:35;;;;;;;;;;;;;;;21.49;100.00;98261.72;5019470;28;19926;-63
2022/05/17 05:02:01;;;;;;;;;;;;;;;21.40;100.00;98264.47;5021722;28;19926;-62
2022/05/17 05:04:30;;;;;;;;;;;;;;;21.40;100.00;98261.75;5022030;28;19968;-62
2022/05/17 05:06:57;;;;;;;;;;;;;;;21.21;100.00;98255.91;5010826;28;19929;-62
2022/05/17 05:09:23;;;;;;;;;;;;;;;21.30;100.00;98255.88;5018550;28;19926;-61
2022/05/17 05:11:50;;;;;;;;;;;;;;;21.39;100.00;98267.50;5020675;28;19960;-61
2022/05/17 05:14:17;;;;;;;;;;;;;;;21.25;100.00;98264.19;5018268;28;19997;-61
2022/05/17 05:16:43;;;;;;;;;;;;;;;21.29;100.00;98265.16;5020427;28;19993;-62
2022/05/17 05:19:09;;;;;;;;;;;;;;;21.32;100.00;98269.94;5021537;28;19984;-61
2022/05/17 05:21:37;;;;;;;;;;;;;;;21.34;100.00;98273.91;5020448;28;19925;-61
2022/05/17 05:24:06;;;;;;;;;;;;;;;21.31;100.00;98271.84;5018105;28;19982;-61
2022/05/17 05:26:35;;;;;;;;;;;;;;;21.40;100.00;98274.53;5018530;28;19945;-61
2022/05/17 05:29:02;;;;;;;;;;;;;;;21.40;100.00;98272.63;5021193;28;19926;-61
2022/05/17 05:31:28;;;;;;;;;;;;;;;21.40;100.00;98286.22;5021149;28;19988;-61
2022/05/17 05:33:54;;;;;;;;;;;;;;;21.40;100.00;98280.78;5010091;28;19933;-60
2022/05/17 05:36:20;;;;;;;;;;;;;;;21.38;100.00;98280.31;5018160;28;19921;-60
2022/05/17 05:38:48;;;;;;;;;;;;;;;21.39;100.00;98276.44;5020608;28;20019;-61
2022/05/17 05:41:15;;;;;;;;;;;;;;;21.34;100.00;98281.28;5021183;28;19936;-60
2022/05/17 05:43:42;;;;;;;;;;;;;;;21.28;100.00;98274.41;5019503;28;19998;-61
2022/05/17 05:46:09;;;;;;;;;;;;;;;21.40;100.00;98279.97;5017899;28;19926;-61
2022/05/17 05:48:36;;;;;;;;;;;;;;;21.41;100.00;98285.09;5018718;28;19937;-61
2022/05/17 05:51:03;;;;;;;;;;;;;;;21.32;100.00;98288.97;5020808;28;20428;-61
2022/05/17 05:53:30;;;;;;;;;;;;;;;21.44;100.00;98300.75;5020780;28;19922;-62
2022/05/17 05:56:01;;;;;;;;;;;;;;;21.41;100.00;98303.31;5017588;28;19925;-60
2022/05/17 05:58:28;;;;;;;;;;;;;;;21.46;100.00;98305.84;5017604;28;19941;-60
2022/05/17 06:00:54;;;;;;;;;;;;;;;21.47;100.00;98299.31;5009592;28;20004;-60
2022/05/17 06:03:21;;;;;;;;;;;;;;;21.37;100.00;98308.59;5017167;28;19926;-61
2022/05/17 06:05:47;;;;;;;;;;;;;;;21.25;100.00;98316.63;5019806;28;19930;-61
2022/05/17 06:08:14;;;;;;;;;;;;;;;21.43;100.00;98312.75;5020140;28;19926;-60
2022/05/17 06:10:41;;;;;;;;;;;;;;;21.66;100.00;98323.38;5018942;28;19925;-60
2022/05/17 06:13:09;;;;;;;;;;;;;;;21.76;100.00;98314.84;5016945;28;19947;-60
2022/05/17 06:15:35;;;;;;;;;;;;;;;21.69;100.00;98307.22;5018970;28;20016;-60
2022/05/17 06:18:02;;;;;;;;;;;;;;;21.95;100.00;98315.28;5017353;28;19932;-61
2022/05/17 06:20:28;;;;;;;;;;;;;;;21.84;100.00;98311.31;5017174;28;19930;-60
2022/05/17 06:22:55;;;;;;;;;;;;;;;21.86;100.00;98320.75;5009337;28;19925;-61
2022/05/17 06:25:21;;;;;;;;;;;;;;;21.89;100.00;98317.41;5016934;28;19932;-61
2022/05/17 06:27:47;;;;;;;;;;;;;;;21.97;100.00;98305.69;5019648;28;19926;-61
2022/05/17 06:30:16;;;;;;;;;;;;;;;21.58;100.00;98316.84;5020180;28;19921;-61
2022/05/17 06:32:43;;;;;;;;;;;;;;;21.70;100.00;98316.16;5018237;28;19932;-62
2022/05/17 06:35:09;;;;;;;;;;;;;;;21.95;100.00;98312.56;5016485;28;19975;-61
2022/05/17 06:37:37;;;;;;;;;;;;;;;22.19;100.00;98310.03;5017519;28;19936;-61
2022/05/17 06:40:07;;;;;;;;;;;;;;;22.03;100.00;98315.25;5020116;28;19936;-60
2022/05/17 06:42:34;;;;;;;;;;;;;;;22.22;100.00;98312.09;5014019;28;19926;-61
2022/05/17 06:45:01;;;;;;;;;;;;;;;22.45;100.00;98313.41;5019926;28;20017;-60
2022/05/17 06:47:28;;;;;;;;;;;;;;;22.55;100.00;98315.75;5020097;28;19993;-61
2022/05/17 06:49:55;;;;;;;;;;;;;;;22.62;100.00;98322.59;5008575;28;19926;-62
2022/05/17 06:52:23;;;;;;;;;;;;;;;22.50;100.00;98313.22;5016462;28;19972;-61
2022/05/17 06:54:50;;;;;;;;;;;;;;;22.76;100.00;98318.50;5019294;28;19929;-61
2022/05/17 06:57:17;;;;;;;;;;;;;;;22.73;100.00;98330.06;5019863;28;20624;-62
2022/05/17 06:59:44;;;;;;;;;;;;;;;22.57;100.00;98327.09;5017818;28;19933;-61
2022/05/17 07:02:10;;;;;;;;;;;;;;;22.37;100.00;98333.34;5016203;28;19932;-61
2022/05/17 07:04:38;;;;;;;;;;;;;;;22.48;100.00;98334.53;5017482;28;19926;-60
2022/05/17 07:07:05;;;;;;;;;;;;;;;22.35;100.00;98332.03;5019784;28;19992;-61
2022/05/17 07:09:32;;;;;;;;;;;;;;;22.51;100.00;98331.16;5019015;28;19931;-61
2022/05/17 07:14:43;;;;;;;;;;;;;;;22.76;100.00;98334.84;5017956;28;19922;-61
2022/05/17 07:17:12;;;;;;;;;;;;;;;22.76;100.00;98331.31;5019396;28;19993;-61
2022/05/17 07:19:39;;;;;;;;;;;;;;;22.73;100.00;98327.34;5018220;28;19932;-61
2022/05/17 07:22:06;;;;;;;;;;;;;;;22.95;100.00;98323.47;5016261;28;19932;-62
2022/05/17 07:24:33;;;;;;;;;;;;;;;23.21;100.00;98332.22;5016922;28;19934;-61
2022/05/17 07:27:00;;;;;;;;;;;;;;;23.28;100.00;98323.50;5018352;28;19994;-61
2022/05/17 07:29:27;;;;;;;;;;;;;;;23.37;100.00;98338.63;5019340;28;19931;-61
2022/05/17 07:31:53;;;;;;;;;;;;;;;23.39;100.00;98333.69;5015930;28;19968;-61
2022/05/17 07:34:20;;;;;;;;;;;;;;;23.27;100.00;98336.34;5016098;28;19926;-61
2022/05/17 07:36:47;;;;;;;;;;;;;;;23.14;100.00;98340.16;5018400;28;19926;-60
2022/05/17 07:39:14;;;;;;;;;;;;;;;23.25;100.00;98330.41;5019342;28;19989;-61
2022/05/17 07:41:42;;;;;;;;;;;;;;;23.22;100.00;98333.81;5017861;28;19997;-61
2022/05/17 07:44:08;;;;;;;;;;;;;;;23.22;100.00;98341.97;5015913;28;19929;-60
2022/05/17 07:46:35;;;;;;;;;;;;;;;23.26;100.00;98334.75;5016509;28;19926;-61
2022/05/17 07:49:01;;;;;;;;;;;;;;;23.23;100.00;98340.84;5018929;28;19948;-60
2022/05/17 07:51:28;;;;;;;;;;;;;;;23.07;100.00;98342.59;5018741;28;19988;-61
2022/05/17 07:53:56;;;;;;;;;;;;;;;22.84;100.00;98342.13;5007985;28;19930;-61
2022/05/17 07:56:22;;;;;;;;;;;;;;;22.84;100.00;98344.88;5015868;28;19953;-62
2022/05/17 07:58:48;;;;;;;;;;;;;;;22.86;100.00;98347.28;5001296;28;19926;-62
2022/05/17 08:01:15;;;;;;;;;;;;;;;23.06;100.00;98344.53;5018994;28;19992;-61
2022/05/17 08:03:42;;;;;;;;;;;;;;;23.18;100.00;98338.31;5017197;28;19925;-61
2022/05/17 08:06:08;;;;;;;;;;;;;;;23.42;100.00;98338.47;5015562;28;19952;-61
2022/05/17 08:08:35;;;;;;;;;;;;;;;23.51;100.00;98341.91;5016469;28;20016;-61
2022/05/17 08:11:02;;;;;;;;;;;;;;;23.31;100.00;98337.25;5019018;28;20016;-61
2022/05/17 08:13:29;;;;;;;;;;;;;;;23.32;100.00;98330.66;5018621;28;19997;-61
2022/05/17 08:15:56;;;;;;;;;;;;;;;23.43;100.00;98340.03;5015334;28;19930;-61
2022/05/17 08:18:27;;;;;;;;;;;;;;;23.48;100.00;98336.31;5015444;28;19926;-60
2022/05/17 08:20:53;;;;;;;;;;;;;;;23.63;100.00;98328.28;5018824;28;19949;-61
2022/05/17 08:23:21;;;;;;;;;;;;;;;23.57;100.00;98335.09;5019019;28;19926;-62
2022/05/17 08:28:33;;;;;;;;;;;;;;;23.65;96.36;98342.38;5015650;28;19926;-61
2022/05/17 08:30:59;;;;;;;;;;;;;;;23.64;89.55;98340.78;5018747;28;19932;-60
2022/05/17 08:33:26;;;;;;;;;;;;;;;23.61;90.88;98336.00;5018466;28;19930;-61
2022/05/17 08:35:54;;;;;;;;;;;;;;;23.70;92.87;98343.31;5015391;28;19926;-61
2022/05/17 08:38:21;;;;;;;;;;;;;;;23.74;89.86;98344.22;5000304;28;19942;-61
2022/05/17 08:40:58;;;;;;;;;;;;;;;23.83;92.31;98344.91;5021359;28;19987;-62
2022/05/17 08:43:27;;;;;;;;;;;;;;;23.60;91.14;98345.31;5022118;28;20178;-61
2022/05/17 08:46:04;;;;;;;;;;;;;;;23.72;93.16;98341.03;5010614;28;19948;-61
2022/05/17 08:48:33;;;;;;;;;;;;;;;23.68;93.49;98351.81;5019043;28;19926;-61
2022/05/17 08:51:00;;;;;;;;;;;;;;;23.99;91.37;98349.34;5021841;28;20072;-61
2022/05/17 08:53:26;;;;;;;;;;;;;;;24.10;82.25;98341.53;5021845;28;19925;-61
2022/05/17 08:55:53;;;;;;;;;;;;;;;24.00;86.53;98348.22;5018635;28;19993;-61
2022/05/17 08:58:20;;;;;;;;;;;;;;;23.98;88.35;98344.25;5018616;28;19925;-61
2022/05/17 09:00:49;;;;;;;;;;;;;;;24.20;87.50;98346.56;5020884;28;19948;-61
2022/05/17 09:03:26;;;;;;;;;;;;;;;24.25;85.37;98351.00;5021590;28;19992;-61
2022/05/17 09:05:56;;;;;;;;;;;;;;;24.39;86.21;98348.69;5018497;28;19965;-60
2022/05/17 09:08:28;;;;;;;;;;;;;;;24.51;85.33;98345.97;5018371;28;19925;-61
2022/05/17 09:10:56;;;;;;;;;;;;;;;24.40;82.49;98345.63;5010245;28;19933;-60
2022/05/17 09:13:26;;;;;;;;;;;;;;;24.50;85.52;98342.44;5019576;28;19957;-61
2022/05/17 09:15:53;;;;;;;;;;;;;;;24.60;80.65;98347.44;5018368;28;19981;-61
2022/05/17 09:18:22;;;;;;;;;;;;;;;24.24;76.12;98338.47;5018186;28;19937;-61
2022/05/17 09:20:49;;;;;;;;;;;;;;;24.14;80.11;98337.00;5020735;28;19989;-61
2022/05/17 09:23:15;;;;;;;;;;;;;;;24.33;81.21;98339.94;5021429;28;20472;-61
2022/05/17 09:25:48;;;;;;;;;;;;;;;24.55;83.17;98352.34;5019608;28;19925;-61
2022/05/17 09:28:18;;;;;;;;;;;;;;;24.59;82.27;98342.31;5017791;28;19961;-61
2022/05/17 09:30:45;;;;;;;;;;;;;;;24.68;79.82;98351.19;5020206;28;19948;-61
2022/05/17 09:33:14;;;;;;;;;;;;;;;24.76;78.62;98346.75;5021230;28;19926;-61
2022/05/17 09:35:44;;;;;;;;;;;;;;;24.66;80.80;98348.00;5019288;28;19926;-62
2022/05/17 09:38:15;;;;;;;;;;;;;;;24.83;78.70;98347.75;5018028;28;19926;-61
2022/05/17 09:40:42;;;;;;;;;;;;;;;24.48;74.14;98350.16;5019239;28;19957;-61
2022/05/17 09:43:11;;;;;;;;;;;;;;;24.64;78.49;98348.34;5021058;28;19936;-61
2022/05/17 09:45:39;;;;;;;;;;;;;;;24.49;73.36;98343.59;5019701;28;19932;-61
2022/05/17 09:48:07;;;;;;;;;;;;;;;24.27;76.32;98343.25;5017449;28;19985;-61
2022/05/17 09:53:38;;;;;;;;;;;;;;;24.34;73.98;98352.47;5020745;28;20022;-62
2022/05/17 09:56:07;;;;;;;;;;;;;;;24.48;77.11;98341.97;5010787;28;19930;-61
2022/05/17 09:58:36;;;;;;;;;;;;;;;24.60;75.56;98339.22;5000544;28;19926;-61
2022/05/17 10:01:07;;;;;;;;;;;;;;;24.77;77.06;98337.38;5020648;28;19937;-61
2022/05/17 10:03:35;;;;;;;;;;;;;;;24.76;76.71;98342.03;5019929;28;20190;-61
2022/05/17 10:06:02;;;;;;;;;;;;;;;24.69;69.82;98345.38;5017559;28;19926;-61
2022/05/17 10:08:31;;;;;;;;;;;;;;;24.99;73.34;98334.97;5017303;28;20022;-61
2022/05/17 10:11:03;;;;;;;;;;;;;;;24.87;72.32;98340.47;5009660;28;19989;-61
2022/05/17 10:13:33;;;;;;;;;;;;;;;25.10;70.58;98349.72;5019241;28;20012;-61
2022/05/17 10:16:02;;;;;;;;;;;;;;;24.83;66.75;98338.75;5017104;28;19926;-60
2022/05/17 10:18:32;;;;;;;;;;;;;;;24.93;67.66;98332.81;5017258;28;19957;-61
2022/05/17 10:21:00;;;;;;;;;;;;;;;24.66;64.34;98337.84;5009593;28;19932;-62
2022/05/17 10:23:31;;;;;;;;;;;;;;;24.56;64.09;98332.88;5017022;28;19926;-63
2022/05/17 10:26:01;;;;;;;;;;;;;;;24.49;64.16;98331.88;5009574;28;19926;-61
2022/05/17 10:28:33;;;;;;;;;;;;;;;24.56;67.13;98332.88;5016895;28;19929;-61
2022/05/17 10:31:02;;;;;;;;;;;;;;;24.65;69.49;98328.09;5009558;28;19953;-60
2022/05/17 10:33:30;;;;;;;;;;;;;;;24.94;71.15;98312.56;5016744;28;19968;-61
2022/05/17 10:36:01;;;;;;;;;;;;;;;25.21;69.39;98325.44;5008977;28;19964;-61
2022/05/17 10:38:31;;;;;;;;;;;;;;;25.13;68.35;98324.44;5016934;28;19926;-61
2022/05/17 10:40:58;;;;;;;;;;;;;;;25.25;69.72;98321.63;5009106;28;19926;-61
2022/05/17 10:43:26;;;;;;;;;;;;;;;25.51;67.73;98318.47;5018370;28;19932;-61
2022/05/17 10:45:57;;;;;;;;;;;;;;;25.43;64.45;98321.34;5016723;28;19936;-62
2022/05/17 10:48:28;;;;;;;;;;;;;;;25.27;64.23;98318.56;5016513;28;19928;-61
2022/05/17 10:50:58;;;;;;;;;;;;;;;25.43;68.62;98316.66;5008356;28;19976;-62
2022/05/17 10:53:31;;;;;;;;;;;;;;;25.37;61.46;98318.06;5016380;28;19926;-61
2022/05/17 10:56:04;;;;;;;;;;;;;;;25.27;64.21;98312.31;5009073;28;19997;-62
2022/05/17 10:58:37;;;;;;;;;;;;;;;25.34;61.42;98316.03;5016715;28;19968;-61
2022/05/17 11:01:06;;;;;;;;;;;;;;;25.30;66.96;98317.06;5019251;28;19992;-61
2022/05/17 11:03:54;;;;;;;;;;;;;;;25.66;64.11;98317.69;5019344;28;20008;-61
2022/05/17 11:06:26;;;;;;;;;;;;;;;25.53;65.81;98307.19;5016148;28;19933;-63
2022/05/17 11:08:57;;;;;;;;;;;;;;;25.53;61.15;98307.97;5019406;28;19925;-61
2022/05/17 11:11:38;;;;;;;;;;;;;;;25.27;59.24;98307.63;5019439;28;19932;-61
2022/05/17 11:14:08;;;;;;;;;;;;;;;25.17;60.80;98308.94;5015408;28;20028;-61
2022/05/17 11:16:37;;;;;;;;;;;;;;;25.05;59.59;98303.50;5016512;28;19933;-61
2022/05/17 11:19:06;;;;;;;;;;;;;;;24.80;58.45;98298.44;5019628;28;19985;-64
2022/05/17 11:21:36;;;;;;;;;;;;;;;24.93;62.54;98306.28;5018960;28;19929;-61
2022/05/17 11:24:14;;;;;;;;;;;;;;;25.09;62.01;98292.69;5016349;28;19922;-61
2022/05/17 11:26:55;;;;;;;;;;;;;;;25.18;60.08;98294.13;5017517;28;19973;-61
2022/05/17 11:29:32;;;;;;;;;;;;;;;25.36;61.23;98299.28;5019618;28;19936;-61
2022/05/17 11:32:00;;;;;;;;;;;;;;;25.58;62.95;98299.50;5008686;28;19933;-61
2022/05/17 11:34:32;;;;;;;;;;;;;;;25.43;60.30;98294.78;5016090;28;19926;-62
2022/05/17 11:37:02;;;;;;;;;;;;;;;25.41;63.17;98299.03;5008411;28;19943;-62
2022/05/17 11:39:41;;;;;;;;;;;;;;;25.38;63.70;98289.56;5016102;28;19929;-61
2022/05/17 11:42:25;;;;;;;;;;;;;;;25.55;65.85;98283.00;5010256;28;19932;-60
2022/05/17 11:44:53;;;;;;;;;;;;;;;25.53;67.60;98290.78;5018845;28;20135;-61
2022/05/17 11:47:30;;;;;;;;;;;;;;;25.61;65.44;98284.34;5019030;28;19933;-61
2022/05/17 11:50:11;;;;;;;;;;;;;;;25.72;65.42;98285.38;5007900;28;19985;-61
2022/05/17 11:52:38;;;;;;;;;;;;;;;25.78;60.07;98284.78;5016332;28;19985;-61
2022/05/17 11:55:09;;;;;;;;;;;;;;;25.52;63.64;98276.31;5019147;28;19926;-61
2022/05/17 11:57:56;;;;;;;;;;;;;;;25.55;63.99;98272.88;5018189;28;19929;-61
2022/05/17 12:00:34;;;;;;;;;;;;;;;25.62;64.58;98283.19;5015336;28;20245;-61
2022/05/17 12:03:01;;;;;;;;;;;;;;;25.68;61.59;98279.84;5008233;28;19926;-61
2022/05/17 12:05:47;;;;;;;;;;;;;;;25.63;61.51;98276.56;5015653;28;20018;-61
2022/05/17 12:08:29;;;;;;;;;;;;;;;25.63;59.65;98271.88;5010143;28;20456;-61
2022/05/17 12:10:58;;;;;;;;;;;;;;;25.39;58.44;98274.75;5007582;28;19997;-60
2022/05/17 12:13:25;;;;;;;;;;;;;;;24.99;59.95;98268.59;5019601;28;19929;-60
2022/05/17 12:15:54;;;;;;;;;;;;;;;25.21;61.60;98271.56;5019222;28;19965;-61
2022/05/17 12:18:31;;;;;;;;;;;;;;;25.06;58.61;98279.72;5018861;28;19926;-61
2022/05/17 12:21:15;;;;;;;;;;;;;;;24.83;58.26;98275.94;5011195;28;20009;-61
2022/05/17 12:23:47;;;;;;;;;;;;;;;25.00;60.23;98270.19;5020525;28;20330;-61
2022/05/17 12:26:16;;;;;;;;;;;;;;;25.03;59.70;98272.22;5022028;28;19925;-61
2022/05/17 12:28:46;;;;;;;;;;;;;;;25.20;57.80;98261.75;5020213;28;19996;-61
2022/05/17 12:31:19;;;;;;;;;;;;;;;25.20;57.96;98252.75;5018722;28;19955;-63
2022/05/17 12:33:47;;;;;;;;;;;;;;;25.25;61.65;98258.00;5021006;28;20550;-61
2022/05/17 12:36:15;;;;;;;;;;;;;;;25.52;60.67;98253.63;5021994;28;19926;-61
2022/05/17 12:44:24;;;;;;;;;;;;;;;25.55;58.09;98244.72;5014075;28;19984;-62
2022/05/17 12:46:53;;;;;;;;;;;;;;;25.64;57.59;98246.13;5021091;28;19925;-61
2022/05/17 12:49:20;;;;;;;;;;;;;;;25.63;59.72;98250.00;5021518;28;19925;-60
2022/05/17 12:51:52;;;;;;;;;;;;;;;25.72;59.68;98247.09;5018852;28;19925;-61
2022/05/17 12:54:21;;;;;;;;;;;;;;;25.74;60.13;98245.59;5018576;28;19926;-61
2022/05/17 12:56:47;;;;;;;;;;;;;;;25.56;59.36;98243.59;5020614;28;19965;-61
2022/05/17 12:59:14;;;;;;;;;;;;;;;25.45;58.04;98237.00;5021227;28;19957;-60
2022/05/17 13:01:42;;;;;;;;;;;;;;;25.41;57.20;98239.63;5019850;28;19930;-61
2022/05/17 13:04:12;;;;;;;;;;;;;;;25.40;56.54;98238.06;5018245;28;20568;-62
2022/05/17 13:06:40;;;;;;;;;;;;;;;25.46;58.43;98236.66;5019194;28;19926;-61